createdAt,value
2022-12-01T00:00:26.115Z,88.90
2022-12-01T00:03:30.237Z,88.90
2022-12-01T06:17:40.195Z,89.40
2022-12-01T06:20:42.245Z,89.40
2022-12-01T06:23:43.987Z,89.40
2022-12-01T06:26:45.862Z,89.40
2022-12-01T06:29:49.238Z,89.30
2022-12-01T06:32:51.110Z,89.20
2022-12-01T06:36:00.216Z,89.20
2022-12-01T06:39:01.897Z,89.30
2022-12-01T06:42:03.772Z,89.40
2022-12-01T06:45:06.179Z,89.30
2022-12-01T06:48:08.514Z,89.30
2022-12-01T06:51:11.107Z,89.30
2022-12-01T06:54:13.040Z,89.60
2022-12-01T06:57:15.462Z,89.70
2022-12-01T07:00:17.854Z,89.80
2022-12-01T07:03:19.881Z,90.10
2022-12-01T07:06:21.906Z,89.90
2022-12-01T07:09:23.627Z,89.90
2022-12-01T07:12:25.349Z,90.00
2022-12-01T07:15:28.752Z,90.00
2022-12-01T07:18:30.871Z,90.20
2022-12-01T07:21:32.561Z,90.30
2022-12-01T07:24:34.336Z,90.30
2022-12-01T07:27:36.375Z,90.30
2022-12-01T07:30:38.226Z,90.20
2022-12-01T07:33:40.029Z,90.10
2022-12-01T07:36:41.953Z,90.10
2022-12-01T07:39:43.635Z,90.00
2022-12-01T07:42:45.349Z,90.00
2022-12-01T07:45:47.224Z,90.00
2022-12-01T07:48:48.976Z,90.00
2022-12-01T07:51:50.766Z,89.80
2022-12-01T07:54:52.816Z,89.70
2022-12-01T07:57:54.517Z,89.90
2022-12-01T08:00:56.280Z,89.90
2022-12-01T08:03:58.616Z,89.90
2022-12-01T08:07:00.551Z,89.80
2022-12-01T08:10:02.493Z,89.80
2022-12-01T08:13:04.176Z,89.90
2022-12-01T08:16:06.845Z,89.70
2022-12-01T08:19:10.698Z,89.40
2022-12-01T08:22:12.395Z,89.40
2022-12-01T08:25:14.430Z,89.40
2022-12-01T08:28:16.106Z,89.30
2022-12-01T08:31:20.338Z,89.20
2022-12-01T08:34:22.134Z,89.00
2022-12-01T08:37:24.022Z,88.90
2022-12-01T08:40:25.768Z,88.80
2022-12-01T08:43:55.862Z,88.70
2022-12-01T08:46:49.416Z,88.40
2022-12-01T08:49:51.394Z,88.30
2022-12-01T08:52:53.266Z,88.00
2022-12-01T08:55:55.192Z,87.90
2022-12-01T08:58:57.045Z,87.70
2022-12-01T09:02:02.431Z,87.50
2022-12-01T09:05:07.782Z,87.40
2022-12-01T09:08:27.844Z,87.30
2022-12-01T09:11:29.529Z,87.50
2022-12-01T09:14:31.280Z,87.60
2022-12-01T09:17:33.031Z,87.80
2022-12-01T09:20:34.769Z,87.90
2022-12-01T09:23:36.450Z,88.10
2022-12-01T09:26:39.434Z,88.30
2022-12-01T09:29:41.116Z,88.40
2022-12-01T09:32:42.859Z,88.30
2022-12-01T09:35:44.648Z,88.20
2022-12-01T09:38:46.368Z,88.00
2022-12-01T09:42:09.339Z,88.00
2022-12-01T09:45:32.929Z,87.90
2022-12-01T09:48:43.432Z,88.00
2022-12-01T09:51:45.167Z,88.00
2022-12-01T09:54:47.383Z,87.90
2022-12-01T09:57:53.193Z,87.90
2022-12-01T10:00:55.012Z,87.90
2022-12-01T10:03:59.212Z,87.80
2022-12-01T10:07:06.680Z,87.80
2022-12-01T10:10:14.333Z,87.60
2022-12-01T10:13:21.296Z,87.50
2022-12-01T10:16:26.637Z,87.50
2022-12-01T10:19:34.088Z,87.50
2022-12-01T10:22:48.039Z,87.40
2022-12-01T10:26:03.739Z,87.30
2022-12-01T10:29:12.530Z,87.40
2022-12-01T10:32:17.331Z,87.20
2022-12-01T10:35:22.205Z,86.90
2022-12-01T10:38:35.232Z,86.60
2022-12-01T10:41:37.285Z,86.20
2022-12-01T10:44:40.178Z,86.00
2022-12-01T10:48:09.025Z,85.70
2022-12-01T10:51:15.856Z,85.70
2022-12-01T10:54:17.664Z,85.60
2022-12-01T10:57:19.412Z,85.70
2022-12-01T11:00:59.246Z,85.80
2022-12-01T11:04:18.558Z,85.80
2022-12-01T11:07:33.989Z,85.80
2022-12-01T11:10:36.845Z,85.70
2022-12-01T11:13:38.589Z,85.80
2022-12-01T11:16:45.228Z,85.70
2022-12-01T11:19:47.356Z,85.60
2022-12-01T11:22:49.379Z,85.50
2022-12-01T11:26:09.591Z,85.30
2022-12-01T11:29:36.185Z,85.20
2022-12-01T11:32:38.990Z,84.90
2022-12-01T11:35:40.987Z,84.60
2022-12-01T11:38:42.677Z,84.20
2022-12-01T11:41:44.381Z,83.90
2022-12-01T11:44:54.056Z,83.70
2022-12-01T11:48:01.713Z,83.50
2022-12-01T11:51:28.923Z,83.30
2022-12-01T11:54:30.627Z,82.80
2022-12-01T11:57:34.650Z,82.60
2022-12-01T12:00:49.981Z,82.10
2022-12-01T12:04:02.952Z,81.30
2022-12-01T12:07:23.335Z,80.80
2022-12-01T12:10:44.895Z,80.50
2022-12-01T12:14:05.684Z,80.40
2022-12-01T12:17:10.600Z,80.50
2022-12-01T12:20:24.097Z,80.80
2022-12-01T12:23:31.872Z,81.00
2022-12-01T12:26:39.887Z,81.20
2022-12-01T12:30:12.022Z,81.30
2022-12-01T12:33:33.391Z,81.50
2022-12-01T12:37:04.618Z,81.70
2022-12-01T12:40:24.775Z,81.60
2022-12-01T12:43:36.515Z,81.50
2022-12-01T12:46:44.627Z,81.00
2022-12-01T12:49:54.468Z,80.30
2022-12-01T12:52:59.554Z,79.60
2022-12-01T12:56:04.261Z,79.00
2022-12-01T12:59:11.941Z,78.40
2022-12-01T13:02:21.341Z,77.90
2022-12-01T13:05:30.320Z,77.60
2022-12-01T13:08:44.368Z,77.30
2022-12-01T13:11:47.512Z,76.70
2022-12-01T13:14:52.485Z,76.50
2022-12-01T13:18:19.871Z,76.20
2022-12-01T13:21:22.518Z,76.20
2022-12-01T13:24:25.200Z,76.70
2022-12-01T13:27:28.357Z,76.90
2022-12-01T13:30:30.172Z,77.10
2022-12-01T13:33:32.268Z,77.30
2022-12-01T13:36:49.466Z,77.20
2022-12-01T13:39:51.368Z,77.20
2022-12-01T13:43:08.882Z,77.10
2022-12-01T13:46:32.720Z,76.90
2022-12-01T13:50:05.479Z,76.80
2022-12-01T13:53:13.946Z,76.70
2022-12-01T13:56:15.912Z,76.70
2022-12-01T13:59:55.380Z,76.80
2022-12-01T14:03:37.002Z,76.80
2022-12-01T14:06:51.225Z,76.80
2022-12-01T14:09:55.790Z,76.80
2022-12-01T14:13:03.636Z,76.70
2022-12-01T14:16:06.571Z,76.50
2022-12-01T14:19:24.833Z,76.50
2022-12-01T14:22:45.723Z,76.80
2022-12-01T14:26:17.881Z,76.90
2022-12-01T14:29:43.042Z,77.00
2022-12-01T14:32:44.740Z,77.00
2022-12-01T14:35:46.568Z,77.10
2022-12-01T14:38:48.667Z,77.20
2022-12-01T14:41:56.549Z,77.20
2022-12-01T14:44:58.289Z,77.30
2022-12-01T14:48:04.420Z,77.30
2022-12-01T14:51:12.072Z,77.30
2022-12-01T14:54:33.499Z,77.30
2022-12-01T14:57:38.180Z,77.40
2022-12-01T15:00:39.879Z,77.60
2022-12-01T15:03:53.816Z,77.70
2022-12-01T15:06:56.500Z,77.80
2022-12-01T15:09:59.776Z,77.90
2022-12-01T15:13:20.367Z,78.00
2022-12-01T15:16:26.293Z,78.10
2022-12-01T15:19:40.372Z,78.10
2022-12-01T15:22:42.044Z,78.20
2022-12-01T15:25:44.995Z,78.20
2022-12-01T15:28:46.724Z,78.20
2022-12-01T15:31:53.660Z,78.10
2022-12-01T15:34:56.049Z,77.90
2022-12-01T15:37:57.742Z,78.00
2022-12-01T15:41:27.885Z,78.00
2022-12-01T15:44:27.734Z,78.10
2022-12-01T15:47:44.508Z,78.30
2022-12-01T15:50:49.949Z,78.60
2022-12-01T15:53:58.164Z,78.80
2022-12-01T15:57:00.131Z,79.10
2022-12-01T16:00:01.932Z,79.30
2022-12-01T16:03:03.717Z,79.50
2022-12-01T16:06:05.754Z,79.90
2022-12-01T16:09:23.325Z,80.20
2022-12-01T16:12:29.039Z,80.50
2022-12-01T16:15:30.882Z,80.70
2022-12-01T16:18:33.235Z,80.70
2022-12-01T16:22:00.859Z,80.70
2022-12-01T16:25:02.613Z,80.80
2022-12-01T16:28:05.417Z,80.80
2022-12-01T16:31:12.611Z,80.70
2022-12-01T16:34:44.020Z,80.80
2022-12-01T16:37:40.117Z,80.80
2022-12-01T16:40:44.619Z,81.00
2022-12-01T16:44:05.361Z,81.10
2022-12-01T16:47:26.371Z,81.30
2022-12-01T16:50:28.053Z,81.40
2022-12-01T16:53:29.760Z,81.50
2022-12-01T16:56:31.653Z,81.60
2022-12-01T16:59:33.441Z,81.90
2022-12-01T17:02:35.212Z,82.10
2022-12-01T17:05:37.201Z,82.30
2022-12-01T17:08:38.907Z,82.60
2022-12-01T17:11:40.625Z,82.70
2022-12-01T17:14:42.415Z,82.90
2022-12-01T17:17:44.289Z,83.10
2022-12-01T17:24:14.981Z,83.60
2022-12-01T17:27:19.575Z,83.60
2022-12-01T17:30:21.346Z,83.80
2022-12-01T17:33:23.160Z,83.90
2022-12-01T17:36:25.144Z,84.00
2022-12-01T17:39:26.825Z,83.80
2022-12-01T17:42:31.140Z,83.80
2022-12-01T17:45:33.858Z,83.90
2022-12-01T17:48:40.321Z,84.00
2022-12-01T17:51:42.445Z,84.20
2022-12-01T17:54:44.258Z,84.20
2022-12-01T17:57:46.085Z,84.10
2022-12-01T18:00:49.815Z,84.10
2022-12-01T18:03:51.553Z,84.00
2022-12-01T18:06:54.564Z,83.90
2022-12-01T18:09:56.529Z,83.70
2022-12-01T18:12:58.252Z,83.70
2022-12-01T18:16:00.908Z,83.70
2022-12-01T18:19:03.202Z,83.60
2022-12-01T18:22:04.940Z,83.50
2022-12-01T18:25:07.066Z,83.60
2022-12-01T18:28:11.014Z,83.60
2022-12-01T18:31:14.751Z,83.70
2022-12-01T18:34:16.483Z,83.90
2022-12-01T18:37:18.227Z,84.00
2022-12-01T18:40:20.028Z,84.10
2022-12-01T18:43:21.743Z,84.00
2022-12-01T18:46:23.775Z,84.10
2022-12-01T18:49:25.514Z,84.10
2022-12-01T18:52:30.023Z,84.20
2022-12-01T18:55:36.160Z,84.30
2022-12-01T18:58:37.917Z,84.30
2022-12-01T19:01:43.943Z,84.30
2022-12-01T19:04:46.244Z,84.30
2022-12-01T19:07:48.406Z,84.40
2022-12-01T19:11:03.190Z,84.50
2022-12-01T19:14:04.943Z,84.50
2022-12-01T19:17:06.629Z,84.60
2022-12-01T19:20:08.985Z,84.60
2022-12-01T19:23:10.757Z,84.70
2022-12-01T19:26:14.504Z,84.60
2022-12-01T19:29:16.299Z,84.60
2022-12-01T19:32:19.160Z,84.70
2022-12-01T19:35:21.092Z,84.70
2022-12-01T19:38:22.772Z,84.70
2022-12-01T19:41:25.349Z,84.70
2022-12-01T19:44:27.096Z,84.90
2022-12-01T19:47:32.797Z,85.00
2022-12-01T19:50:35.732Z,85.00
2022-12-01T19:53:37.474Z,85.00
2022-12-01T19:56:39.430Z,85.00
2022-12-01T19:59:41.145Z,85.00
2022-12-01T20:02:42.862Z,85.00
2022-12-01T20:05:44.962Z,85.00
2022-12-01T20:08:46.906Z,85.10
2022-12-01T20:11:48.662Z,85.10
2022-12-01T20:14:50.824Z,85.20
2022-12-01T20:17:53.949Z,85.20
2022-12-01T20:21:05.340Z,85.40
2022-12-01T20:24:07.797Z,85.40
2022-12-01T20:27:09.831Z,85.40
2022-12-01T20:30:12.510Z,85.40
2022-12-01T20:33:14.239Z,85.40
2022-12-01T20:36:16.327Z,85.50
2022-12-01T20:39:18.102Z,85.60
2022-12-01T20:42:22.260Z,85.60
2022-12-01T20:45:24.243Z,85.70
2022-12-01T20:48:26.298Z,85.70
2022-12-01T20:51:28.052Z,85.70
2022-12-01T20:54:31.004Z,85.70
2022-12-01T20:57:33.185Z,85.60
2022-12-01T21:00:38.855Z,85.60
2022-12-01T21:03:42.032Z,85.70
2022-12-01T21:06:43.944Z,85.80
2022-12-01T21:09:45.708Z,85.90
2022-12-01T21:13:07.975Z,86.00
2022-12-01T21:16:22.404Z,86.00
2022-12-01T21:19:31.552Z,86.00
2022-12-01T21:22:33.480Z,85.90
2022-12-01T21:25:37.311Z,86.00
2022-12-01T21:28:38.977Z,86.10
2022-12-01T21:31:40.735Z,86.20
2022-12-01T21:34:42.575Z,86.30
2022-12-01T21:37:44.661Z,86.40
2022-12-01T21:40:46.772Z,86.40
2022-12-01T21:43:48.812Z,86.50
2022-12-01T21:46:53.347Z,86.60
2022-12-01T21:49:58.209Z,86.70
2022-12-01T21:52:59.984Z,86.70
2022-12-01T21:56:02.026Z,86.70
2022-12-01T21:59:29.966Z,86.60
2022-12-01T22:02:46.001Z,86.70
2022-12-01T22:06:21.367Z,86.80
2022-12-01T22:09:17.963Z,86.70
2022-12-01T22:12:24.585Z,86.90
2022-12-01T22:15:53.430Z,87.00
2022-12-01T22:18:56.512Z,86.90
2022-12-01T22:22:18.620Z,86.90
2022-12-01T22:25:25.690Z,87.00
2022-12-01T22:28:27.378Z,87.00
2022-12-01T22:31:29.533Z,87.00
2022-12-01T22:34:31.332Z,87.10
2022-12-01T22:37:38.693Z,87.10
2022-12-01T22:40:43.541Z,87.10
2022-12-01T22:43:52.068Z,87.10
2022-12-01T22:46:54.133Z,87.10
2022-12-01T22:49:55.878Z,87.00
2022-12-01T22:53:12.568Z,87.00
2022-12-01T22:56:34.687Z,87.00
2022-12-01T22:59:37.757Z,87.00
2022-12-01T23:02:39.559Z,87.20
2022-12-01T23:05:42.026Z,87.20
2022-12-01T23:08:43.760Z,87.30
2022-12-01T23:11:49.448Z,87.30
2022-12-01T23:14:53.658Z,87.20
2022-12-01T23:17:55.518Z,87.50
2022-12-01T23:20:58.472Z,87.30
2022-12-01T23:24:00.164Z,87.30
2022-12-01T23:27:02.154Z,87.30
2022-12-01T23:30:04.534Z,87.30
2022-12-01T23:33:09.269Z,87.40
2022-12-01T23:36:19.301Z,87.50
2022-12-01T23:39:23.367Z,87.50
